createdAt,value
2023-03-03T00:00:12.963Z,2.00
2023-03-03T00:02:40.040Z,2.00
2023-03-03T00:05:07.330Z,2.00
2023-03-03T00:07:34.877Z,2.00
2023-03-03T00:10:02.018Z,2.00
2023-03-03T00:12:30.409Z,2.00
2023-03-03T00:14:57.190Z,2.00
2023-03-03T00:17:26.326Z,2.00
2023-03-03T00:19:54.720Z,2.00
2023-03-03T00:22:33.646Z,2.00
2023-03-03T00:25:01.455Z,2.00
2023-03-03T00:27:34.646Z,1.90
2023-03-03T00:30:01.500Z,1.90
2023-03-03T00:32:31.916Z,1.80
2023-03-03T00:35:03.717Z,1.80
2023-03-03T00:37:35.153Z,1.80
2023-03-03T00:40:40.525Z,1.80
2023-03-03T00:43:20.695Z,1.80
2023-03-03T00:45:57.804Z,1.80
2023-03-03T00:48:37.015Z,1.70
2023-03-03T00:51:17.291Z,1.60
2023-03-03T00:53:44.528Z,1.60
2023-03-03T00:56:11.393Z,1.60
2023-03-03T00:58:38.105Z,1.60
2023-03-03T01:01:05.141Z,1.60
2023-03-03T01:03:32.786Z,1.60
2023-03-03T01:06:01.095Z,1.50
2023-03-03T01:08:28.337Z,1.50
2023-03-03T01:10:56.563Z,1.50
2023-03-03T01:13:26.330Z,1.50
2023-03-03T01:15:53.542Z,1.60
2023-03-03T01:18:20.944Z,1.60
2023-03-03T01:20:47.832Z,1.50
2023-03-03T01:23:14.622Z,1.50
2023-03-03T01:25:41.725Z,1.50
2023-03-03T01:28:08.718Z,1.50
2023-03-03T01:30:35.537Z,1.60
2023-03-03T01:33:02.393Z,1.60
2023-03-03T01:35:30.108Z,1.50
2023-03-03T01:37:57.124Z,1.50
2023-03-03T01:40:26.294Z,1.40
2023-03-03T01:42:53.481Z,1.30
2023-03-03T01:45:24.750Z,1.30
2023-03-03T01:48:04.777Z,1.30
2023-03-03T01:50:40.271Z,1.20
2023-03-03T01:53:10.369Z,1.20
2023-03-03T01:55:43.447Z,1.20
2023-03-03T01:58:50.891Z,1.20
2023-03-03T02:01:22.290Z,1.20
2023-03-03T02:03:49.389Z,1.20
2023-03-03T02:06:18.204Z,1.20
2023-03-03T02:09:08.061Z,1.30
2023-03-03T02:11:36.368Z,1.20
2023-03-03T02:14:03.752Z,1.30
2023-03-03T02:16:31.033Z,1.30
2023-03-03T02:18:58.886Z,1.40
2023-03-03T02:21:28.135Z,1.40
2023-03-03T02:24:03.555Z,1.50
2023-03-03T02:26:31.616Z,1.50
2023-03-03T02:28:58.396Z,1.50
2023-03-03T02:31:28.289Z,1.50
2023-03-03T02:33:55.380Z,1.50
2023-03-03T02:36:30.294Z,1.60
2023-03-03T02:39:21.479Z,1.60
2023-03-03T02:41:59.490Z,1.50
2023-03-03T02:44:28.425Z,1.60
2023-03-03T02:46:55.585Z,1.60
2023-03-03T02:49:24.184Z,1.60
2023-03-03T02:51:51.907Z,1.70
2023-03-03T02:54:20.044Z,1.80
2023-03-03T02:56:48.742Z,1.80
2023-03-03T02:59:16.140Z,1.70
2023-03-03T03:01:43.163Z,1.70
2023-03-03T03:04:21.285Z,1.70
2023-03-03T03:06:48.291Z,1.80
2023-03-03T03:09:15.685Z,1.80
2023-03-03T03:11:43.267Z,1.80
2023-03-03T03:14:11.240Z,1.70
2023-03-03T03:16:38.181Z,1.70
2023-03-03T03:19:05.766Z,1.80
2023-03-03T03:21:34.206Z,1.80
2023-03-03T03:24:02.235Z,1.80
2023-03-03T03:26:29.551Z,1.90
2023-03-03T03:28:56.459Z,2.00
2023-03-03T03:31:23.742Z,2.00
2023-03-03T03:33:50.567Z,2.00
2023-03-03T03:36:17.671Z,2.00
2023-03-03T03:38:45.274Z,1.90
2023-03-03T03:41:12.489Z,1.90
2023-03-03T03:43:40.324Z,1.90
2023-03-03T03:46:07.463Z,1.80
2023-03-03T03:48:36.732Z,1.70
2023-03-03T03:51:03.724Z,1.70
2023-03-03T03:53:30.742Z,1.60
2023-03-03T03:55:57.729Z,1.60
2023-03-03T03:58:25.361Z,1.50
2023-03-03T04:00:52.703Z,1.50
2023-03-03T04:03:20.689Z,1.50
2023-03-03T04:05:47.556Z,1.60
2023-03-03T04:08:14.380Z,1.50
2023-03-03T04:10:42.236Z,1.50
2023-03-03T04:13:09.539Z,1.40
2023-03-03T04:15:36.361Z,1.30
2023-03-03T04:18:03.778Z,1.20
2023-03-03T04:20:30.740Z,1.20
2023-03-03T04:22:58.052Z,1.30
2023-03-03T04:25:25.241Z,1.30
2023-03-03T04:27:52.984Z,1.20
2023-03-03T04:30:20.092Z,1.20
2023-03-03T04:32:47.603Z,1.10
2023-03-03T04:35:14.888Z,1.10
2023-03-03T04:37:42.046Z,1.00
2023-03-03T04:40:09.459Z,1.00
2023-03-03T04:42:36.361Z,1.00
2023-03-03T04:45:03.777Z,0.90
2023-03-03T04:47:31.237Z,0.80
2023-03-03T04:49:58.508Z,0.80
2023-03-03T04:52:25.996Z,0.80
2023-03-03T04:54:55.512Z,0.80
2023-03-03T04:57:22.431Z,0.70
2023-03-03T04:59:49.321Z,0.70
2023-03-03T05:02:18.123Z,0.70
2023-03-03T05:04:45.392Z,0.80
2023-03-03T05:07:12.161Z,0.70
2023-03-03T05:09:39.354Z,0.60
2023-03-03T05:12:06.500Z,0.60
2023-03-03T05:14:34.319Z,0.70
2023-03-03T05:17:05.852Z,0.70
2023-03-03T05:22:22.158Z,0.60
2023-03-03T05:24:56.960Z,0.60
2023-03-03T05:27:24.906Z,0.60
2023-03-03T05:29:57.161Z,0.50
2023-03-03T05:32:27.794Z,0.60
2023-03-03T05:35:06.197Z,0.50
2023-03-03T05:37:52.931Z,0.50
2023-03-03T05:40:22.699Z,0.40
2023-03-03T05:42:50.079Z,0.40
2023-03-03T05:45:32.827Z,0.40
2023-03-03T05:48:19.988Z,0.50
2023-03-03T05:50:49.334Z,0.50
2023-03-03T05:53:16.218Z,0.70
2023-03-03T05:55:46.738Z,0.90
2023-03-03T06:01:06.001Z,1.00
2023-03-03T06:03:34.568Z,1.20
2023-03-03T06:06:02.023Z,1.40
2023-03-03T06:08:42.837Z,1.50
2023-03-03T06:11:14.609Z,1.80
2023-03-03T06:13:44.347Z,2.10
2023-03-03T06:16:14.318Z,2.50
2023-03-03T06:18:42.149Z,2.70
2023-03-03T06:21:10.077Z,3.00
2023-03-03T06:23:46.843Z,3.20
2023-03-03T06:29:10.032Z,3.70
2023-03-03T06:31:51.518Z,4.30
2023-03-03T06:34:30.666Z,4.50
2023-03-03T06:37:05.459Z,4.90
2023-03-03T06:39:40.188Z,5.30
2023-03-03T06:42:32.533Z,5.80
2023-03-03T06:44:59.734Z,6.20
2023-03-03T06:47:28.062Z,6.30
2023-03-03T06:49:58.085Z,6.30
2023-03-03T06:52:26.669Z,6.30
2023-03-03T06:55:00.680Z,6.20
2023-03-03T06:57:29.531Z,6.20
2023-03-03T06:59:59.904Z,6.30
2023-03-03T07:02:40.658Z,6.20
2023-03-03T07:05:17.937Z,6.30
2023-03-03T07:07:47.671Z,6.30
2023-03-03T07:10:31.134Z,6.40
2023-03-03T07:13:04.181Z,6.80
2023-03-03T07:15:36.239Z,7.30
2023-03-03T07:18:26.566Z,7.90
2023-03-03T07:20:58.034Z,8.40
2023-03-03T07:23:29.681Z,8.90
2023-03-03T07:25:57.384Z,9.10
2023-03-03T07:28:30.689Z,9.30
2023-03-03T07:30:58.086Z,9.40
2023-03-03T07:33:43.432Z,9.60
2023-03-03T07:36:29.163Z,9.70
2023-03-03T07:38:59.187Z,9.70
2023-03-03T07:41:28.944Z,9.60
2023-03-03T07:43:59.638Z,9.70
2023-03-03T07:46:31.573Z,9.70
2023-03-03T07:49:00.626Z,9.80
2023-03-03T07:51:42.170Z,9.90
2023-03-03T07:54:25.952Z,10.20
2023-03-03T07:56:55.519Z,10.40
2023-03-03T07:59:24.870Z,10.50
2023-03-03T08:01:57.886Z,10.50
2023-03-03T08:04:51.244Z,10.60
2023-03-03T08:07:19.172Z,10.80
2023-03-03T08:10:01.943Z,11.10
2023-03-03T08:12:34.729Z,11.30
2023-03-03T08:15:20.316Z,11.50
2023-03-03T08:17:50.990Z,11.40
2023-03-03T08:20:42.817Z,11.30
2023-03-03T08:23:09.639Z,11.20
2023-03-03T08:25:41.819Z,11.10
2023-03-03T08:28:09.852Z,11.30
2023-03-03T08:30:38.303Z,11.20
2023-03-03T08:33:05.427Z,11.10
2023-03-03T08:35:33.088Z,10.90
2023-03-03T08:38:00.493Z,10.90
2023-03-03T08:40:31.262Z,10.90
2023-03-03T08:43:01.547Z,10.90
2023-03-03T08:45:28.768Z,11.00
2023-03-03T08:47:56.044Z,11.20
2023-03-03T08:50:26.625Z,11.20
2023-03-03T08:52:55.261Z,11.40
2023-03-03T08:55:29.902Z,11.60
2023-03-03T08:57:59.818Z,12.00
2023-03-03T09:00:26.860Z,12.10
2023-03-03T09:02:57.767Z,12.30
2023-03-03T09:05:25.150Z,12.30
2023-03-03T09:07:53.320Z,12.50
2023-03-03T09:10:27.620Z,12.70
2023-03-03T09:13:00.907Z,12.60
2023-03-03T09:15:31.133Z,12.60
2023-03-03T09:18:16.363Z,12.60
2023-03-03T09:20:51.517Z,12.60
2023-03-03T09:23:37.149Z,12.40
2023-03-03T09:26:22.554Z,12.10
2023-03-03T09:28:50.113Z,11.70
2023-03-03T09:31:31.829Z,11.50
2023-03-03T09:34:02.083Z,11.30
2023-03-03T09:36:32.024Z,11.10
2023-03-03T09:38:59.437Z,11.10
2023-03-03T09:41:34.085Z,11.10
2023-03-03T09:44:22.128Z,11.20
2023-03-03T09:47:26.886Z,11.20
2023-03-03T09:50:03.583Z,11.30
2023-03-03T09:52:34.131Z,11.60
2023-03-03T09:55:13.149Z,11.70
2023-03-03T09:58:10.356Z,11.70
2023-03-03T10:00:54.167Z,11.70
2023-03-03T10:03:49.126Z,11.50
2023-03-03T10:06:40.671Z,11.30
2023-03-03T10:12:25.604Z,11.00
2023-03-03T10:15:03.519Z,11.00
2023-03-03T10:17:36.018Z,11.00
2023-03-03T10:20:47.617Z,11.10
2023-03-03T10:23:56.290Z,11.40
2023-03-03T10:26:44.811Z,11.60
2023-03-03T10:29:31.003Z,11.90
2023-03-03T10:31:59.535Z,12.20
2023-03-03T10:34:54.279Z,12.40
2023-03-03T10:37:33.125Z,12.60
2023-03-03T10:40:10.910Z,12.90
2023-03-03T10:42:47.550Z,13.00
2023-03-03T10:45:32.466Z,13.10
2023-03-03T10:48:21.387Z,12.90
2023-03-03T10:51:17.780Z,12.80
2023-03-03T10:54:07.041Z,12.80
2023-03-03T10:56:53.329Z,12.90
2023-03-03T10:59:57.760Z,13.10
2023-03-03T11:02:30.509Z,13.40
2023-03-03T11:05:07.684Z,13.50
2023-03-03T11:07:43.026Z,13.60
2023-03-03T11:10:22.683Z,13.60
2023-03-03T11:13:03.596Z,13.80
2023-03-03T11:15:53.346Z,13.70
2023-03-03T11:18:36.930Z,13.70
2023-03-03T11:21:14.904Z,13.70
2023-03-03T11:24:05.144Z,13.60
2023-03-03T11:26:53.616Z,13.60
2023-03-03T11:29:52.508Z,13.50
2023-03-03T11:32:28.788Z,13.40
2023-03-03T11:35:25.507Z,13.30
2023-03-03T11:38:11.864Z,13.10
2023-03-03T11:41:22.971Z,13.00
2023-03-03T11:43:54.232Z,12.90
2023-03-03T11:46:30.200Z,12.80
2023-03-03T11:49:18.360Z,12.70
2023-03-03T11:52:32.768Z,12.60
2023-03-03T11:55:18.991Z,12.60
2023-03-03T11:58:01.173Z,12.40
2023-03-03T12:00:44.707Z,12.30
2023-03-03T12:03:19.830Z,12.20
2023-03-03T12:06:10.893Z,12.10
2023-03-03T12:08:58.193Z,11.90
2023-03-03T12:11:40.082Z,11.80
2023-03-03T12:14:36.370Z,11.80
2023-03-03T12:17:29.174Z,11.70
2023-03-03T12:20:03.583Z,11.70
2023-03-03T12:23:05.890Z,11.70
2023-03-03T12:26:02.189Z,11.70
2023-03-03T12:28:40.957Z,11.70
2023-03-03T12:31:41.433Z,11.60
2023-03-03T12:34:18.277Z,11.60
2023-03-03T12:37:05.325Z,11.60
2023-03-03T12:40:09.687Z,11.50
2023-03-03T12:42:54.204Z,11.60
2023-03-03T12:45:33.339Z,11.60
2023-03-03T12:48:00.705Z,11.50
2023-03-03T12:50:48.741Z,11.50
2023-03-03T13:07:38.240Z,11.30
2023-03-03T13:37:03.120Z,10.70
2023-03-03T13:57:56.014Z,10.60
2023-03-03T14:00:57.955Z,10.50
2023-03-03T14:03:33.892Z,10.60
2023-03-03T14:06:03.747Z,10.60
2023-03-03T14:08:49.452Z,10.60
2023-03-03T14:11:58.165Z,10.60
2023-03-03T14:14:43.559Z,10.60
2023-03-03T14:17:25.955Z,10.60
2023-03-03T14:20:14.427Z,10.60
2023-03-03T14:22:51.403Z,10.70
2023-03-03T14:25:19.453Z,10.70
2023-03-03T14:27:51.918Z,10.60
2023-03-03T14:30:24.927Z,10.60
2023-03-03T14:33:02.292Z,10.60
2023-03-03T14:35:41.899Z,10.60
2023-03-03T14:38:09.700Z,10.50
2023-03-03T14:40:39.013Z,10.50
2023-03-03T14:43:19.294Z,10.50
2023-03-03T14:45:46.995Z,10.50
2023-03-03T14:48:25.574Z,10.50
2023-03-03T14:51:04.827Z,10.50
2023-03-03T14:53:36.025Z,10.50
2023-03-03T14:56:28.509Z,10.50
2023-03-03T14:59:16.091Z,10.50
2023-03-03T15:01:44.105Z,10.50
2023-03-03T15:04:26.412Z,10.50
2023-03-03T15:06:55.938Z,10.50
2023-03-03T15:09:34.942Z,10.50
2023-03-03T15:12:04.216Z,10.50
2023-03-03T15:14:46.073Z,10.50
2023-03-03T15:18:07.093Z,10.50
2023-03-03T15:20:39.501Z,10.50
2023-03-03T15:23:32.173Z,10.40
2023-03-03T15:26:06.927Z,10.40
2023-03-03T15:28:46.823Z,10.30
2023-03-03T15:31:37.116Z,10.30
2023-03-03T15:34:54.516Z,10.40
2023-03-03T15:37:53.938Z,10.20
2023-03-03T15:40:32.966Z,10.10
2023-03-03T15:43:27.883Z,10.00
2023-03-03T15:46:04.035Z,10.00
2023-03-03T15:48:43.684Z,9.90
2023-03-03T15:51:37.665Z,9.90
2023-03-03T15:54:20.354Z,9.70
2023-03-03T15:57:03.321Z,9.60
2023-03-03T16:00:24.013Z,9.60
2023-03-03T16:03:01.364Z,9.60
2023-03-03T16:05:40.359Z,9.50
2023-03-03T16:08:14.435Z,9.40
2023-03-03T16:10:56.284Z,9.40
2023-03-03T16:13:55.228Z,9.40
2023-03-03T16:16:31.390Z,9.30
2023-03-03T16:19:12.228Z,9.30
2023-03-03T16:22:12.994Z,9.20
2023-03-03T16:24:55.334Z,9.10
2023-03-03T16:27:44.190Z,9.10
2023-03-03T16:30:26.400Z,9.00
2023-03-03T16:33:18.920Z,8.90
2023-03-03T16:36:17.813Z,8.90
2023-03-03T16:38:52.421Z,8.80
2023-03-03T16:41:59.248Z,8.60
2023-03-03T16:45:07.656Z,8.60
2023-03-03T16:47:57.965Z,8.50
2023-03-03T16:50:37.696Z,8.40
2023-03-03T16:53:27.581Z,8.40
2023-03-03T16:56:36.176Z,8.30
2023-03-03T16:59:15.319Z,8.20
2023-03-03T17:01:55.946Z,8.10
2023-03-03T17:04:51.949Z,8.00
2023-03-03T17:07:21.859Z,7.90
2023-03-03T17:10:05.877Z,7.80
2023-03-03T17:12:49.914Z,7.70
2023-03-03T17:15:31.774Z,7.60
2023-03-03T17:18:30.272Z,7.60
2023-03-03T17:20:59.238Z,7.60
2023-03-03T17:23:45.596Z,7.60
2023-03-03T17:26:16.445Z,7.50
2023-03-03T17:29:09.193Z,7.50
2023-03-03T17:32:12.302Z,7.50
2023-03-03T17:35:15.210Z,7.40
2023-03-03T17:37:59.986Z,7.40
2023-03-03T17:40:46.296Z,7.30
2023-03-03T17:43:24.013Z,7.20
2023-03-03T17:45:52.863Z,7.20
2023-03-03T17:48:32.096Z,7.10
2023-03-03T17:51:14.108Z,7.10
2023-03-03T17:54:00.131Z,7.10
2023-03-03T17:56:35.278Z,7.10
2023-03-03T17:59:28.120Z,7.10
2023-03-03T18:02:11.314Z,7.10
2023-03-03T18:05:20.191Z,7.00
2023-03-03T18:08:23.418Z,7.00
2023-03-03T18:11:15.380Z,6.90
2023-03-03T18:13:44.986Z,6.90
2023-03-03T18:16:36.491Z,6.80
2023-03-03T18:19:17.353Z,6.80
2023-03-03T18:22:04.352Z,6.70
2023-03-03T18:24:57.259Z,6.60
2023-03-03T18:27:25.665Z,6.60
2023-03-03T18:30:26.292Z,6.60
2023-03-03T18:32:56.270Z,6.50
2023-03-03T18:35:49.560Z,6.50
2023-03-03T18:38:16.682Z,6.40
2023-03-03T18:41:03.250Z,6.40
2023-03-03T18:43:47.854Z,6.40
2023-03-03T18:46:24.459Z,6.30
2023-03-03T18:49:06.613Z,6.30
2023-03-03T18:51:45.181Z,6.30
2023-03-03T18:54:18.580Z,6.30
2023-03-03T18:56:49.727Z,6.20
2023-03-03T18:59:40.726Z,6.20
2023-03-03T19:02:35.880Z,6.20
2023-03-03T19:05:05.782Z,6.10
2023-03-03T19:07:52.048Z,6.00
2023-03-03T19:10:24.410Z,6.00
2023-03-03T19:12:53.918Z,5.90
2023-03-03T19:15:29.869Z,5.80
2023-03-03T19:18:18.569Z,5.80
2023-03-03T19:21:12.269Z,5.70
2023-03-03T19:24:03.813Z,5.70
2023-03-03T19:26:44.710Z,5.70
2023-03-03T19:29:48.917Z,5.60
2023-03-03T19:32:31.194Z,5.60
2023-03-03T19:35:39.882Z,5.60
2023-03-03T19:38:32.497Z,5.50
2023-03-03T19:41:10.118Z,5.40
2023-03-03T19:43:52.670Z,5.30
2023-03-03T19:47:04.023Z,5.40
2023-03-03T19:49:40.064Z,5.30
2023-03-03T19:52:42.145Z,5.20
2023-03-03T19:55:41.828Z,5.20
2023-03-03T22:21:15.320Z,3.30
2023-03-03T22:23:47.875Z,3.30
2023-03-03T22:26:19.034Z,3.20
2023-03-03T22:28:45.847Z,3.30
2023-03-03T22:31:14.678Z,3.20
2023-03-03T22:33:45.484Z,3.20
2023-03-03T22:36:19.080Z,3.10
2023-03-03T22:38:46.974Z,3.10
2023-03-03T22:41:15.950Z,3.00
2023-03-03T22:43:43.255Z,3.10
2023-03-03T22:46:14.814Z,3.00
2023-03-03T22:48:45.303Z,2.90
2023-03-03T22:51:20.346Z,3.00
2023-03-03T22:53:49.351Z,2.90
2023-03-03T22:56:19.135Z,2.90
2023-03-03T22:58:47.493Z,2.90
2023-03-03T23:01:19.759Z,2.90
2023-03-03T23:03:46.730Z,2.90
2023-03-03T23:06:13.895Z,2.80
2023-03-03T23:08:43.340Z,2.90
2023-03-03T23:11:10.175Z,2.80
2023-03-03T23:13:40.652Z,2.80
2023-03-03T23:16:10.042Z,2.70
2023-03-03T23:18:41.035Z,2.70
2023-03-03T23:21:09.649Z,2.60
2023-03-03T23:23:41.913Z,2.60
2023-03-03T23:26:08.746Z,2.50
2023-03-03T23:28:38.387Z,2.50
2023-03-03T23:31:07.973Z,2.50
2023-03-03T23:33:36.446Z,2.40
2023-03-03T23:36:04.082Z,2.40
2023-03-03T23:38:30.827Z,2.30
2023-03-03T23:40:57.605Z,2.30
2023-03-03T23:43:24.625Z,2.20
2023-03-03T23:45:52.665Z,2.20
2023-03-03T23:48:20.814Z,2.10
2023-03-03T23:50:48.911Z,2.10
2023-03-03T23:53:17.345Z,2.00
2023-03-03T23:55:46.404Z,2.00
2023-03-03T23:58:13.480Z,1.90
